METAR Data

Data at: 1819 UTC 21 Nov 2018

METAR for:KCQX (Chatham Muni, MA, US)
Text:KCQX 211752Z AUTO 24010G19KT 10SM FEW036 SCT100 06/M01 A2992 RMK AO2 SLP134 T00611011 10061 21011 58037
Temperature: 6.1°C ( 43°F)
Dewpoint: -1.1°C ( 30°F) [RH = 60%]
Pressure (altimeter):29.92 inches Hg (1013.3 mb) [Sea level pressure: 1013.4 mb]
Winds:from the WSW (240 degrees) at 12 MPH (10 knots; 5.1 m/s) gusting to 22 MPH (19 knots; 9.8 m/s)
Visibility:10 or more sm (16+ km)
Ceiling:at least 12,000 feet AGL
Clouds: few clouds at 3600 feet AGL, scattered clouds at 10000 feet AGL
QC Flag:automated observation with no human augmentation